createdAt,value
2023-04-20T00:00:56.062Z,9.961242676
2023-04-20T00:01:57.627Z,10.09216309
2023-04-20T00:02:59.828Z,10.17272949
2023-04-20T00:04:01.708Z,10.16265869
2023-04-20T00:05:02.561Z,10.17272949
2023-04-20T00:06:03.751Z,10.13244629
2023-04-20T00:07:05.498Z,10.10223389
2023-04-20T00:08:07.159Z,10.07202148
2023-04-20T00:09:08.238Z,9.991455078
2023-04-20T00:10:10.134Z,9.931030273
2023-04-20T00:11:11.110Z,9.88067627
2023-04-20T00:12:13.301Z,9.89074707
2023-04-20T00:13:15.288Z,9.88067627
2023-04-20T00:14:16.266Z,9.88067627
2023-04-20T00:15:17.335Z,9.830322266
2023-04-20T00:16:18.375Z,9.860534668
2023-04-20T00:17:20.054Z,9.920959473
2023-04-20T00:18:21.463Z,9.88067627
2023-04-20T00:19:53.731Z,9.830322266
2023-04-20T00:20:54.760Z,9.830322266
2023-04-20T00:21:56.581Z,9.779968262
2023-04-20T00:22:57.511Z,9.860534668
2023-04-20T00:23:59.131Z,9.88067627
2023-04-20T00:25:01.080Z,9.850463867
2023-04-20T00:26:02.108Z,9.800109863
2023-04-20T00:27:04.049Z,9.810180664
2023-04-20T00:28:04.939Z,9.850463867
2023-04-20T00:29:05.946Z,9.800109863
2023-04-20T00:30:07.643Z,9.850463867
2023-04-20T00:31:08.697Z,9.860534668
2023-04-20T00:32:10.570Z,9.88067627
2023-04-20T00:33:11.494Z,9.860534668
2023-04-20T00:34:12.514Z,9.769897461
2023-04-20T00:35:13.773Z,9.830322266
2023-04-20T00:36:14.719Z,9.830322266
2023-04-20T00:37:16.545Z,9.89074707
2023-04-20T00:38:17.478Z,9.89074707
2023-04-20T00:39:19.302Z,9.910888672
2023-04-20T00:40:21.228Z,9.860534668
2023-04-20T00:41:53.557Z,9.830322266
2023-04-20T00:42:54.983Z,9.769897461
2023-04-20T00:43:55.979Z,9.679260254
2023-04-20T00:44:57.000Z,9.669189453
2023-04-20T00:45:58.034Z,9.679260254
2023-04-20T00:46:58.942Z,9.62890625
2023-04-20T00:48:00.696Z,9.669189453
2023-04-20T00:49:02.612Z,9.618835449
2023-04-20T00:50:03.676Z,9.578552246
2023-04-20T00:51:05.569Z,9.49798584
2023-04-20T00:52:07.043Z,9.518127441
2023-04-20T00:53:08.047Z,9.588623047
2023-04-20T00:54:09.118Z,9.588623047
2023-04-20T00:55:10.248Z,9.588623047
2023-04-20T00:56:11.265Z,9.588623047
2023-04-20T00:57:13.261Z,9.598693848
2023-04-20T00:58:14.364Z,9.598693848
2023-04-20T00:59:15.593Z,9.528198242
2023-04-20T01:00:16.431Z,9.518127441
2023-04-20T01:01:17.442Z,9.598693848
2023-04-20T01:02:19.160Z,9.598693848
2023-04-20T01:03:20.166Z,9.618835449
2023-04-20T01:04:52.562Z,9.729614258
2023-04-20T01:05:53.764Z,9.850463867
2023-04-20T01:06:54.766Z,9.850463867
2023-04-20T01:07:56.462Z,9.89074707
2023-04-20T01:08:57.625Z,9.931030273
2023-04-20T01:09:59.597Z,9.981384277
2023-04-20T01:11:00.579Z,9.981384277
2023-04-20T01:12:02.608Z,9.931030273
2023-04-20T01:13:04.664Z,9.920959473
2023-04-20T01:14:06.635Z,9.910888672
2023-04-20T01:15:07.621Z,9.920959473
2023-04-20T01:16:08.611Z,9.910888672
2023-04-20T01:17:10.197Z,9.910888672
2023-04-20T01:18:11.254Z,10.02166748
2023-04-20T01:19:13.503Z,10.09216309
2023-04-20T01:20:14.649Z,10.09216309
2023-04-20T01:21:15.642Z,10.09216309
2023-04-20T01:22:18.048Z,10.10223389
2023-04-20T01:23:19.015Z,10.02166748
2023-04-20T01:24:21.074Z,9.830322266
2023-04-20T01:25:53.064Z,9.779968262
2023-04-20T01:26:54.016Z,9.830322266
2023-04-20T01:27:55.631Z,9.860534668
2023-04-20T01:28:57.599Z,9.910888672
2023-04-20T01:29:58.794Z,9.910888672
2023-04-20T01:31:00.671Z,9.88067627
2023-04-20T01:32:01.579Z,9.830322266
2023-04-20T01:33:03.042Z,9.850463867
2023-04-20T01:34:05.064Z,9.89074707
2023-04-20T01:35:06.111Z,9.920959473
2023-04-20T01:36:07.067Z,9.89074707
2023-04-20T01:37:09.179Z,9.920959473
2023-04-20T01:38:10.072Z,9.981384277
2023-04-20T01:39:12.105Z,9.991455078
2023-04-20T01:40:14.070Z,9.981384277
2023-04-20T01:41:15.065Z,9.931030273
2023-04-20T01:42:16.578Z,9.920959473
2023-04-20T01:43:17.673Z,9.951171875
2023-04-20T01:44:19.655Z,9.931030273
2023-04-20T01:45:51.320Z,9.89074707
2023-04-20T01:46:52.463Z,9.860534668
2023-04-20T01:47:54.190Z,9.830322266
2023-04-20T01:48:55.058Z,9.800109863
2023-04-20T01:49:56.273Z,9.749755859
2023-04-20T01:50:57.304Z,9.709472656
2023-04-20T01:51:58.273Z,9.62890625
2023-04-20T01:53:00.048Z,9.588623047
2023-04-20T01:54:00.993Z,9.588623047
2023-04-20T01:55:01.951Z,9.62890625
2023-04-20T01:56:03.492Z,9.699401855
2023-04-20T01:57:04.574Z,9.749755859
2023-04-20T01:58:06.645Z,9.729614258
2023-04-20T01:59:07.528Z,9.669189453
2023-04-20T02:00:08.541Z,9.709472656
2023-04-20T02:01:09.490Z,9.709472656
2023-04-20T02:02:11.160Z,9.739685059
2023-04-20T02:03:12.537Z,9.709472656
2023-04-20T02:04:14.148Z,9.699401855
2023-04-20T02:05:16.055Z,9.669189453
2023-04-20T02:06:16.881Z,9.729614258
2023-04-20T02:07:18.539Z,9.649047852
2023-04-20T02:08:19.483Z,9.618835449
2023-04-20T02:09:52.110Z,9.588623047
2023-04-20T02:10:53.573Z,9.558410645
2023-04-20T02:11:54.506Z,9.528198242
2023-04-20T02:12:56.098Z,9.49798584
2023-04-20T02:13:57.994Z,9.49798584
2023-04-20T02:14:59.048Z,9.518127441
2023-04-20T02:15:59.951Z,9.528198242
2023-04-20T02:17:01.595Z,9.578552246
2023-04-20T02:18:03.664Z,9.598693848
2023-04-20T02:19:04.745Z,9.618835449
2023-04-20T02:20:05.783Z,9.618835449
2023-04-20T02:21:06.666Z,9.578552246
2023-04-20T02:22:08.466Z,9.49798584
2023-04-20T02:23:10.067Z,9.477844238
2023-04-20T02:24:11.089Z,9.487915039
2023-04-20T02:25:12.051Z,9.437561035
2023-04-20T02:26:12.825Z,9.417419434
2023-04-20T02:27:14.551Z,9.447631836
2023-04-20T02:28:15.560Z,9.49798584
2023-04-20T02:29:17.326Z,9.528198242
2023-04-20T02:30:17.990Z,9.528198242
2023-04-20T02:31:18.931Z,9.588623047
2023-04-20T02:32:51.193Z,9.598693848
2023-04-20T02:33:52.540Z,9.558410645
2023-04-20T02:34:53.461Z,9.548339844
2023-04-20T02:35:54.391Z,9.49798584
2023-04-20T02:36:55.341Z,9.528198242
2023-04-20T02:37:56.402Z,9.558410645
2023-04-20T02:38:58.073Z,9.558410645
2023-04-20T02:39:59.557Z,9.578552246
2023-04-20T02:41:00.511Z,9.588623047
2023-04-20T02:42:02.062Z,9.649047852
2023-04-20T02:43:04.188Z,9.669189453
2023-04-20T02:44:06.003Z,9.699401855
2023-04-20T02:45:06.933Z,9.769897461
2023-04-20T02:46:07.954Z,9.779968262
2023-04-20T02:47:09.814Z,9.749755859
2023-04-20T02:48:10.781Z,9.699401855
2023-04-20T02:49:11.826Z,9.709472656
2023-04-20T02:50:12.728Z,9.699401855
2023-04-20T02:51:14.546Z,9.709472656
2023-04-20T02:52:16.047Z,9.779968262
2023-04-20T02:53:18.050Z,9.769897461
2023-04-20T02:54:19.550Z,9.850463867
2023-04-20T02:55:51.528Z,9.850463867
2023-04-20T02:56:52.496Z,9.88067627
2023-04-20T02:57:54.012Z,9.850463867
2023-04-20T02:58:54.943Z,9.89074707
2023-04-20T02:59:56.070Z,9.860534668
2023-04-20T03:00:57.036Z,9.850463867
2023-04-20T03:01:58.095Z,9.850463867
2023-04-20T03:02:59.583Z,9.800109863
2023-04-20T03:04:01.269Z,9.830322266
2023-04-20T03:05:02.100Z,9.89074707
2023-04-20T03:06:03.209Z,9.89074707
2023-04-20T03:07:04.312Z,9.88067627
2023-04-20T03:08:06.073Z,9.860534668
2023-04-20T03:09:07.565Z,9.749755859
2023-04-20T03:10:09.114Z,9.749755859
2023-04-20T03:11:10.043Z,9.800109863
2023-04-20T03:12:11.817Z,9.800109863
2023-04-20T03:13:13.758Z,9.779968262
2023-04-20T03:14:15.588Z,9.739685059
2023-04-20T03:15:16.638Z,9.699401855
2023-04-20T03:16:17.699Z,9.598693848
2023-04-20T03:17:19.571Z,9.548339844
2023-04-20T03:18:50.969Z,9.528198242
2023-04-20T03:19:52.466Z,9.558410645
2023-04-20T03:20:53.460Z,9.598693848
2023-04-20T03:21:54.613Z,9.618835449
2023-04-20T03:22:56.484Z,9.62890625
2023-04-20T03:23:58.188Z,9.649047852
2023-04-20T03:24:59.107Z,9.62890625
2023-04-20T03:25:59.996Z,9.618835449
2023-04-20T03:27:00.928Z,9.598693848
2023-04-20T03:28:02.611Z,9.62890625
2023-04-20T03:29:04.059Z,9.62890625
2023-04-20T03:30:05.005Z,9.578552246
2023-04-20T03:31:05.909Z,9.49798584
2023-04-20T03:32:06.992Z,9.49798584
2023-04-20T03:33:08.780Z,9.49798584
2023-04-20T03:34:10.585Z,9.447631836
2023-04-20T03:35:11.529Z,9.447631836
2023-04-20T03:36:12.357Z,9.407348633
2023-04-20T03:37:14.082Z,9.36706543
2023-04-20T03:38:45.254Z,9.477844238
2023-04-20T03:40:18.104Z,9.437561035
2023-04-20T03:41:49.875Z,9.417419434
2023-04-20T03:42:51.477Z,9.407348633
2023-04-20T03:43:53.096Z,9.37713623
2023-04-20T03:44:54.513Z,9.36706543
2023-04-20T03:45:55.415Z,9.37713623
2023-04-20T03:46:56.249Z,9.397277832
2023-04-20T03:47:58.138Z,9.49798584
2023-04-20T03:48:59.086Z,9.548339844
2023-04-20T03:49:59.941Z,9.487915039
2023-04-20T03:51:00.956Z,9.49798584
2023-04-20T03:52:01.844Z,9.49798584
2023-04-20T03:53:03.461Z,9.487915039
2023-04-20T03:54:05.028Z,9.447631836
2023-04-20T03:55:05.917Z,9.417419434
2023-04-20T03:56:06.796Z,9.487915039
2023-04-20T03:57:07.812Z,9.558410645
2023-04-20T03:58:09.488Z,9.49798584
2023-04-20T03:59:10.398Z,9.487915039
2023-04-20T04:00:11.245Z,9.447631836
2023-04-20T04:01:12.236Z,9.437561035
2023-04-20T04:02:14.040Z,9.487915039
2023-04-20T04:03:15.589Z,9.558410645
2023-04-20T04:04:17.219Z,9.578552246
2023-04-20T04:05:17.967Z,9.598693848
2023-04-20T04:06:49.452Z,9.49798584
2023-04-20T04:07:51.014Z,9.437561035
2023-04-20T04:08:52.132Z,9.36706543
2023-04-20T04:09:54.046Z,9.346923828
2023-04-20T04:10:55.530Z,9.296569824
2023-04-20T04:11:56.416Z,9.316711426
2023-04-20T04:12:58.209Z,9.256286621
2023-04-20T04:14:00.043Z,9.216003418
2023-04-20T04:15:01.057Z,9.165649414
2023-04-20T04:16:03.089Z,9.125366211
2023-04-20T04:17:05.098Z,9.11529541
2023-04-20T04:18:06.817Z,9.075012207
2023-04-20T04:19:07.769Z,9.145507813
2023-04-20T04:20:08.717Z,9.23614502
2023-04-20T04:21:09.596Z,9.306640625
2023-04-20T04:22:10.528Z,9.23614502
2023-04-20T04:23:12.076Z,9.23614502
2023-04-20T04:24:13.833Z,9.266357422
2023-04-20T04:25:14.798Z,9.266357422
2023-04-20T04:26:15.682Z,9.23614502
2023-04-20T04:27:17.624Z,9.165649414
2023-04-20T04:28:49.272Z,9.145507813
2023-04-20T04:29:50.338Z,9.155578613
2023-04-20T04:30:51.295Z,9.145507813
2023-04-20T04:31:52.280Z,9.155578613
2023-04-20T04:32:54.090Z,9.075012207
2023-04-20T04:33:55.540Z,9.004516602
2023-04-20T04:34:56.483Z,8.984375
2023-04-20T04:35:58.057Z,9.044799805
2023-04-20T04:36:58.939Z,9.064941406
2023-04-20T04:38:00.580Z,9.075012207
2023-04-20T04:39:01.579Z,9.125366211
2023-04-20T04:40:04.442Z,9.11529541
2023-04-20T04:41:05.590Z,9.165649414
2023-04-20T04:42:06.524Z,9.155578613
2023-04-20T04:43:07.459Z,9.125366211
2023-04-20T04:44:08.999Z,9.155578613
2023-04-20T04:45:10.674Z,9.064941406
2023-04-20T04:46:11.717Z,9.014587402
2023-04-20T04:47:12.685Z,9.064941406
2023-04-20T04:48:14.625Z,9.095153809
2023-04-20T04:49:15.610Z,9.095153809
2023-04-20T04:50:16.370Z,9.125366211
2023-04-20T04:51:17.305Z,9.11529541
2023-04-20T04:52:49.678Z,9.145507813
2023-04-20T04:53:51.614Z,9.145507813
2023-04-20T04:54:52.516Z,9.125366211
2023-04-20T04:55:54.065Z,9.125366211
2023-04-20T04:56:55.030Z,9.11529541
2023-04-20T04:57:56.545Z,9.075012207
2023-04-20T04:58:57.628Z,9.075012207
2023-04-20T04:59:59.579Z,9.11529541
2023-04-20T05:01:00.491Z,9.125366211
2023-04-20T05:02:01.980Z,9.044799805
2023-04-20T05:03:03.570Z,9.034729004
2023-04-20T05:04:05.708Z,9.064941406
2023-04-20T05:05:08.938Z,9.145507813
2023-04-20T05:06:07.373Z,9.195861816
2023-04-20T05:07:08.382Z,9.185791016
2023-04-20T05:08:10.159Z,9.155578613
2023-04-20T05:09:12.010Z,9.11529541
2023-04-20T05:10:43.769Z,9.095153809
2023-04-20T05:12:15.440Z,9.216003418
2023-04-20T05:13:17.219Z,9.226074219
2023-04-20T05:14:49.429Z,9.256286621
2023-04-20T05:15:50.516Z,9.296569824
2023-04-20T05:16:51.412Z,9.256286621
2023-04-20T05:17:52.422Z,9.226074219
2023-04-20T05:18:53.180Z,9.165649414
2023-04-20T05:19:54.062Z,9.195861816
2023-04-20T05:20:55.023Z,9.125366211
2023-04-20T05:21:56.064Z,9.064941406
2023-04-20T05:22:57.556Z,9.044799805
2023-04-20T05:23:59.067Z,9.095153809
2023-04-20T05:25:00.548Z,9.11529541
2023-04-20T05:26:01.671Z,9.155578613
2023-04-20T05:27:02.711Z,9.11529541
2023-04-20T05:28:04.988Z,9.095153809
2023-04-20T05:29:05.788Z,9.034729004
2023-04-20T05:30:19.528Z,9.014587402
2023-04-20T05:31:07.702Z,9.014587402
2023-04-20T05:32:08.889Z,9.034729004
2023-04-20T05:33:10.561Z,9.004516602
2023-04-20T05:34:12.107Z,8.984375
2023-04-20T05:35:12.962Z,8.974304199
2023-04-20T05:36:14.558Z,8.944091797
2023-04-20T05:37:15.503Z,8.913879395
2023-04-20T05:38:17.508Z,8.863525391
2023-04-20T05:39:49.970Z,8.913879395
2023-04-20T05:40:52.106Z,8.984375
2023-04-20T05:41:52.494Z,9.11529541
2023-04-20T05:42:54.184Z,9.165649414
2023-04-20T05:43:54.996Z,9.216003418
2023-04-20T05:44:56.530Z,9.256286621
2023-04-20T05:45:57.472Z,9.226074219
2023-04-20T05:46:58.435Z,9.165649414
2023-04-20T05:48:00.241Z,9.216003418
2023-04-20T05:49:02.015Z,9.185791016
2023-04-20T05:50:02.923Z,9.185791016
2023-04-20T05:51:03.873Z,9.165649414
2023-04-20T05:52:04.846Z,9.195861816
2023-04-20T05:53:06.491Z,9.155578613
2023-04-20T05:54:08.044Z,9.075012207
2023-04-20T05:55:08.942Z,9.095153809
2023-04-20T05:56:10.520Z,9.064941406
2023-04-20T05:57:11.508Z,9.044799805
2023-04-20T05:58:12.984Z,9.004516602
2023-04-20T05:59:15.216Z,8.974304199
2023-04-20T06:00:15.956Z,8.964233398
2023-04-20T06:01:17.339Z,8.944091797
2023-04-20T06:02:49.650Z,8.944091797
2023-04-20T06:03:50.594Z,9.004516602
2023-04-20T06:04:52.134Z,8.974304199
2023-04-20T06:05:52.999Z,8.974304199
2023-04-20T06:06:54.069Z,8.974304199
2023-04-20T06:07:55.607Z,8.984375
2023-04-20T06:08:56.524Z,8.913879395
2023-04-20T06:09:58.083Z,8.85345459
2023-04-20T06:11:00.160Z,8.823242188
2023-04-20T06:12:01.203Z,8.782958984
2023-04-20T06:13:03.084Z,8.73260498
2023-04-20T06:14:04.538Z,8.682250977
2023-04-20T06:15:06.584Z,8.682250977
2023-04-20T06:16:07.642Z,8.702392578
2023-04-20T06:17:09.078Z,8.611755371
2023-04-20T06:18:11.044Z,8.641967773
2023-04-20T06:19:12.113Z,8.641967773
2023-04-20T06:20:13.066Z,8.702392578
2023-04-20T06:21:14.420Z,8.752746582
2023-04-20T06:22:15.357Z,8.762817383
2023-04-20T06:23:47.848Z,8.752746582
2023-04-20T06:24:49.576Z,8.762817383
2023-04-20T06:25:50.609Z,8.793029785
2023-04-20T06:26:51.746Z,8.702392578
2023-04-20T06:27:53.506Z,8.672180176
2023-04-20T06:28:54.724Z,8.702392578
2023-04-20T06:29:55.603Z,8.752746582
2023-04-20T06:30:56.702Z,8.73260498
2023-04-20T06:31:57.700Z,8.712463379
2023-04-20T06:32:59.697Z,8.652038574
2023-04-20T06:34:00.562Z,8.641967773
2023-04-20T06:35:02.049Z,8.672180176
2023-04-20T06:36:03.035Z,8.672180176
2023-04-20T06:37:04.112Z,8.73260498
2023-04-20T06:38:06.095Z,8.73260498
2023-04-20T06:39:07.692Z,8.73260498
2023-04-20T06:40:09.703Z,8.752746582
2023-04-20T06:41:10.584Z,8.712463379
2023-04-20T06:42:11.667Z,8.712463379
2023-04-20T06:43:13.843Z,8.762817383
2023-04-20T06:44:15.570Z,8.712463379
2023-04-20T06:45:47.576Z,8.682250977
2023-04-20T06:46:49.172Z,8.702392578
2023-04-20T06:47:51.099Z,8.712463379
2023-04-20T06:48:52.486Z,8.712463379
2023-04-20T06:49:53.393Z,8.793029785
2023-04-20T06:50:54.514Z,8.793029785
2023-04-20T06:51:55.556Z,8.782958984
2023-04-20T06:52:57.049Z,8.85345459
2023-04-20T06:53:58.526Z,8.934020996
2023-04-20T06:55:00.280Z,8.913879395
2023-04-20T06:56:01.240Z,8.913879395
2023-04-20T06:57:03.080Z,8.974304199
2023-04-20T06:58:04.565Z,8.974304199
2023-04-20T06:59:05.335Z,9.004516602
2023-04-20T07:00:06.289Z,9.004516602
2023-04-20T07:01:08.250Z,9.004516602
2023-04-20T07:02:09.168Z,8.984375
2023-04-20T07:03:11.211Z,9.004516602
2023-04-20T07:04:12.461Z,9.004516602
2023-04-20T07:05:14.122Z,9.014587402
2023-04-20T07:06:15.152Z,9.044799805
2023-04-20T07:07:17.530Z,9.125366211
2023-04-20T07:08:49.473Z,9.095153809
2023-04-20T07:09:51.076Z,9.145507813
2023-04-20T07:10:52.214Z,9.185791016
2023-04-20T07:11:53.196Z,9.195861816
2023-04-20T07:12:54.555Z,9.195861816
2023-04-20T07:13:55.465Z,9.185791016
2023-04-20T07:14:57.095Z,9.145507813
2023-04-20T07:15:58.200Z,9.095153809
2023-04-20T07:16:59.154Z,9.044799805
2023-04-20T07:18:01.007Z,9.014587402
2023-04-20T07:19:01.920Z,8.913879395
2023-04-20T07:20:03.628Z,8.934020996
2023-04-20T07:21:04.687Z,8.934020996
2023-04-20T07:22:05.617Z,8.85345459
2023-04-20T07:23:07.582Z,8.803100586
2023-04-20T07:24:08.606Z,8.762817383
2023-04-20T07:25:10.903Z,8.762817383
2023-04-20T07:26:11.904Z,8.682250977
2023-04-20T07:27:12.829Z,8.611755371
2023-04-20T07:28:14.675Z,8.581542969
2023-04-20T07:29:16.989Z,8.541259766
2023-04-20T07:30:48.130Z,8.500976563
2023-04-20T07:31:49.086Z,8.521118164
2023-04-20T07:32:50.607Z,8.490905762
2023-04-20T07:33:51.494Z,8.430480957
2023-04-20T07:34:53.228Z,8.450622559
2023-04-20T07:35:54.215Z,8.450622559
2023-04-20T07:36:56.023Z,8.420410156
2023-04-20T07:37:56.984Z,8.359985352
2023-04-20T07:38:58.632Z,8.430480957
2023-04-20T07:40:00.629Z,8.47076416
2023-04-20T07:41:01.532Z,8.541259766
2023-04-20T07:42:03.133Z,8.581542969
2023-04-20T07:43:04.223Z,8.631896973
2023-04-20T07:44:06.074Z,8.611755371
2023-04-20T07:45:08.181Z,8.60168457
2023-04-20T07:46:09.186Z,8.60168457
2023-04-20T07:47:10.091Z,8.500976563
2023-04-20T07:48:12.138Z,8.47076416
2023-04-20T07:49:13.089Z,8.571472168
2023-04-20T07:50:14.416Z,8.60168457
2023-04-20T07:51:15.356Z,8.652038574
2023-04-20T07:52:47.591Z,8.611755371
2023-04-20T07:53:48.605Z,8.60168457
2023-04-20T07:54:50.064Z,8.581542969
2023-04-20T07:55:51.626Z,8.611755371
2023-04-20T07:56:52.472Z,8.682250977
2023-04-20T07:57:54.027Z,8.702392578
2023-04-20T07:58:54.974Z,8.672180176
2023-04-20T07:59:55.993Z,8.652038574
2023-04-20T08:00:56.933Z,8.652038574
2023-04-20T08:01:57.943Z,8.60168457
2023-04-20T08:02:59.683Z,8.541259766
2023-04-20T08:04:00.745Z,8.541259766
2023-04-20T08:05:01.598Z,8.490905762
2023-04-20T08:06:03.550Z,8.47076416
2023-04-20T08:07:05.108Z,8.551330566
2023-04-20T08:08:05.983Z,8.551330566
2023-04-20T08:09:07.559Z,8.460693359
2023-04-20T08:10:09.245Z,8.450622559
2023-04-20T08:11:11.069Z,8.460693359
2023-04-20T08:12:11.939Z,8.47076416
2023-04-20T08:13:13.797Z,8.450622559
2023-04-20T08:14:14.954Z,8.521118164
2023-04-20T08:15:47.106Z,8.500976563
2023-04-20T08:16:48.075Z,8.541259766
2023-04-20T08:17:50.115Z,8.551330566
2023-04-20T08:18:51.074Z,8.60168457
2023-04-20T08:19:52.507Z,8.611755371
2023-04-20T08:20:53.673Z,8.652038574
2023-04-20T08:21:54.530Z,8.631896973
2023-04-20T08:22:56.067Z,8.611755371
2023-04-20T08:23:57.060Z,8.611755371
2023-04-20T08:24:57.928Z,8.631896973
2023-04-20T08:25:59.556Z,8.652038574
2023-04-20T08:27:00.512Z,8.682250977
2023-04-20T08:28:02.804Z,8.641967773
2023-04-20T08:29:02.874Z,8.641967773
2023-04-20T08:30:03.893Z,8.672180176
2023-04-20T08:31:05.055Z,8.641967773
2023-04-20T08:32:05.990Z,8.60168457
2023-04-20T08:33:07.554Z,8.571472168
2023-04-20T08:34:09.164Z,8.551330566
2023-04-20T08:35:10.108Z,8.551330566
2023-04-20T08:36:12.028Z,8.551330566
2023-04-20T08:37:12.990Z,8.571472168
2023-04-20T08:38:18.058Z,8.60168457
2023-04-20T08:39:47.617Z,8.611755371
2023-04-20T08:40:49.106Z,8.631896973
2023-04-20T08:41:50.199Z,8.641967773
2023-04-20T08:42:51.153Z,8.652038574
2023-04-20T08:43:52.300Z,8.631896973
2023-04-20T08:44:54.096Z,8.571472168
2023-04-20T08:45:56.024Z,8.47076416
2023-04-20T08:46:57.092Z,8.450622559
2023-04-20T08:47:58.670Z,8.47076416
2023-04-20T08:48:59.573Z,8.490905762
2023-04-20T08:50:00.453Z,8.551330566
2023-04-20T08:51:01.783Z,8.611755371
2023-04-20T08:52:02.698Z,8.641967773
2023-04-20T08:53:04.802Z,8.631896973
2023-04-20T08:54:05.622Z,8.641967773
2023-04-20T08:55:06.490Z,8.672180176
2023-04-20T08:56:08.062Z,8.641967773
2023-04-20T08:57:09.592Z,8.682250977
2023-04-20T08:58:11.592Z,8.702392578
2023-04-20T08:59:13.040Z,8.652038574
2023-04-20T09:00:14.282Z,8.551330566
2023-04-20T09:01:46.992Z,8.571472168
2023-04-20T09:02:48.722Z,8.571472168
2023-04-20T09:03:50.057Z,8.611755371
2023-04-20T09:04:50.627Z,8.672180176
2023-04-20T09:05:52.565Z,8.762817383
2023-04-20T09:06:53.575Z,8.793029785
2023-04-20T09:07:55.086Z,8.85345459
2023-04-20T09:08:55.926Z,8.85345459
2023-04-20T09:09:57.480Z,8.833312988
2023-04-20T09:10:59.073Z,8.752746582
2023-04-20T09:12:00.261Z,8.73260498
2023-04-20T09:13:01.252Z,8.73260498
2023-04-20T09:14:02.951Z,8.702392578
2023-04-20T09:15:03.804Z,8.682250977
2023-04-20T09:16:05.650Z,8.652038574
2023-04-20T09:17:06.391Z,8.631896973
2023-04-20T09:18:08.025Z,8.611755371
2023-04-20T09:19:09.503Z,8.60168457
2023-04-20T09:20:09.772Z,8.611755371
2023-04-20T09:21:10.708Z,8.581542969
2023-04-20T09:22:11.637Z,8.551330566
2023-04-20T09:23:13.781Z,8.541259766
2023-04-20T09:24:15.280Z,8.581542969
2023-04-20T09:25:47.049Z,8.60168457
2023-04-20T09:26:48.098Z,8.521118164
2023-04-20T09:27:49.587Z,8.430480957
2023-04-20T09:28:50.507Z,8.370056152
2023-04-20T09:29:52.015Z,8.319702148
2023-04-20T09:30:53.055Z,8.289489746
2023-04-20T09:31:54.053Z,8.279418945
2023-04-20T09:32:55.657Z,8.239135742
2023-04-20T09:33:56.544Z,8.239135742
2023-04-20T09:34:58.145Z,8.218994141
2023-04-20T09:36:00.025Z,8.289489746
2023-04-20T09:37:00.947Z,8.269348145
2023-04-20T09:38:02.732Z,8.279418945
2023-04-20T09:39:03.723Z,8.218994141
2023-04-20T09:40:05.639Z,8.20892334
2023-04-20T09:41:07.613Z,8.20892334
2023-04-20T09:42:08.539Z,8.249206543
2023-04-20T09:43:10.016Z,8.249206543
2023-04-20T09:44:11.145Z,8.269348145
2023-04-20T09:45:12.019Z,8.20892334
2023-04-20T09:46:13.892Z,8.20892334
2023-04-20T09:47:15.123Z,8.239135742
2023-04-20T09:48:47.469Z,8.269348145
2023-04-20T09:49:48.394Z,8.289489746
2023-04-20T09:50:51.562Z,8.420410156
2023-04-20T09:51:51.024Z,8.370056152
2023-04-20T09:52:52.530Z,8.390197754
2023-04-20T09:53:53.646Z,8.430480957
2023-04-20T09:54:54.557Z,8.460693359
2023-04-20T09:55:56.152Z,8.430480957
2023-04-20T09:56:57.049Z,8.420410156
2023-04-20T09:57:58.516Z,8.450622559
2023-04-20T09:59:00.003Z,8.460693359
2023-04-20T10:00:01.570Z,8.490905762
2023-04-20T10:01:02.537Z,8.47076416
2023-04-20T10:02:03.506Z,8.490905762
2023-04-20T10:03:05.238Z,8.460693359
2023-04-20T10:04:06.318Z,8.47076416
2023-04-20T10:05:06.973Z,8.490905762
2023-04-20T10:06:09.087Z,8.500976563
2023-04-20T10:07:10.088Z,8.500976563
2023-04-20T10:08:12.020Z,8.47076416
2023-04-20T10:09:12.917Z,8.460693359
2023-04-20T10:10:15.040Z,8.47076416
2023-04-20T10:11:53.185Z,8.521118164
2023-04-20T10:12:48.597Z,8.571472168
2023-04-20T10:13:49.651Z,8.500976563
2023-04-20T10:14:51.477Z,8.521118164
2023-04-20T10:15:52.561Z,8.500976563
2023-04-20T10:16:54.113Z,8.450622559
2023-04-20T10:17:55.840Z,8.450622559
2023-04-20T10:18:56.918Z,8.460693359
2023-04-20T10:19:58.521Z,8.500976563
2023-04-20T10:20:59.514Z,8.490905762
2023-04-20T10:22:00.994Z,8.500976563
2023-04-20T10:23:02.680Z,8.500976563
2023-04-20T10:24:04.586Z,8.500976563
2023-04-20T10:25:06.705Z,8.541259766
2023-04-20T10:26:08.543Z,8.521118164
2023-04-20T10:27:09.988Z,8.541259766
2023-04-20T10:28:10.899Z,8.551330566
2023-04-20T10:29:11.852Z,8.631896973
2023-04-20T10:30:12.764Z,8.641967773
2023-04-20T10:31:14.686Z,8.641967773
2023-04-20T10:32:46.087Z,8.631896973
2023-04-20T10:33:47.617Z,8.60168457
2023-04-20T10:34:48.545Z,8.60168457
2023-04-20T10:35:50.002Z,8.611755371
2023-04-20T10:36:51.051Z,8.652038574
2023-04-20T10:37:52.024Z,8.702392578
2023-04-20T10:38:52.921Z,8.712463379
2023-04-20T10:39:53.776Z,8.712463379
2023-04-20T10:40:54.795Z,8.782958984
2023-04-20T10:41:55.784Z,8.793029785
2023-04-20T10:42:56.692Z,8.803100586
2023-04-20T10:43:58.458Z,8.762817383
2023-04-20T10:44:59.456Z,8.702392578
2023-04-20T10:46:01.192Z,8.652038574
2023-04-20T10:47:02.983Z,8.581542969
2023-04-20T10:48:03.884Z,8.521118164
2023-04-20T10:49:05.567Z,8.47076416
2023-04-20T10:50:06.587Z,8.460693359
2023-04-20T10:51:07.525Z,8.420410156
2023-04-20T10:52:08.452Z,8.33984375
2023-04-20T10:53:10.081Z,8.33984375
2023-04-20T10:54:11.010Z,8.309631348
2023-04-20T10:55:11.987Z,8.279418945
2023-04-20T10:56:13.102Z,8.279418945
2023-04-20T10:57:45.519Z,8.289489746
2023-04-20T10:58:47.009Z,8.370056152
2023-04-20T10:59:47.961Z,8.390197754
2023-04-20T11:00:48.938Z,8.390197754
2023-04-20T11:01:49.856Z,8.430480957
2023-04-20T11:02:51.765Z,8.47076416
2023-04-20T11:03:53.172Z,8.450622559
2023-04-20T11:04:54.041Z,8.430480957
2023-04-20T11:05:55.589Z,8.370056152
2023-04-20T11:06:56.530Z,8.370056152
2023-04-20T11:07:58.108Z,8.450622559
2023-04-20T11:08:59.650Z,8.521118164
2023-04-20T11:10:01.588Z,8.541259766
2023-04-20T11:11:03.627Z,8.581542969
2023-04-20T11:12:04.899Z,8.571472168
2023-04-20T11:13:05.976Z,8.60168457
2023-04-20T11:14:07.555Z,8.551330566
2023-04-20T11:15:09.137Z,8.521118164
2023-04-20T11:16:10.170Z,8.490905762
2023-04-20T11:17:11.549Z,8.460693359
2023-04-20T11:18:12.572Z,8.430480957
2023-04-20T11:19:14.046Z,8.420410156
2023-04-20T11:20:45.665Z,8.460693359
2023-04-20T11:21:46.562Z,8.460693359
2023-04-20T11:22:48.051Z,8.420410156